createdAt,value
2018-08-19T00:00:53.038Z,18.60
2018-08-19T00:03:23.709Z,18.60
2018-08-19T00:05:53.374Z,18.50
2018-08-19T00:08:22.920Z,18.40
2018-08-19T00:10:59.091Z,18.30
2018-08-19T00:13:29.568Z,18.20
2018-08-19T00:15:58.882Z,18.10
2018-08-19T00:18:28.187Z,18.00
2018-08-19T00:20:57.726Z,17.90
2018-08-19T00:23:34.611Z,17.80
2018-08-19T00:26:04.327Z,17.80
2018-08-19T00:28:33.587Z,17.70
2018-08-19T00:31:05.000Z,17.60
2018-08-19T00:33:34.544Z,17.60
2018-08-19T00:36:19.095Z,17.60
2018-08-19T00:38:48.466Z,17.60
2018-08-19T00:41:17.789Z,17.80
2018-08-19T00:43:47.031Z,17.70
2018-08-19T00:46:21.113Z,17.60
2018-08-19T00:48:50.375Z,17.60
2018-08-19T00:51:19.601Z,17.50
2018-08-19T00:53:48.787Z,17.50
2018-08-19T00:56:19.028Z,17.50
2018-08-19T00:58:48.332Z,17.40
2018-08-19T01:01:29.973Z,17.40
2018-08-19T01:04:00.405Z,17.30
2018-08-19T01:06:30.167Z,17.20
2018-08-19T01:08:59.656Z,17.20
2018-08-19T01:11:34.371Z,17.20
2018-08-19T01:14:10.676Z,17.10
2018-08-19T01:16:40.096Z,17.00
2018-08-19T01:19:15.799Z,17.00
2018-08-19T01:21:50.238Z,17.00
2018-08-19T01:24:26.011Z,17.00
2018-08-19T01:26:57.258Z,16.90
2018-08-19T01:29:34.727Z,16.80
2018-08-19T01:32:09.916Z,16.80
2018-08-19T01:34:44.590Z,16.80
2018-08-19T01:37:14.882Z,16.70
2018-08-19T01:39:44.712Z,16.70
2018-08-19T01:42:13.928Z,16.60
2018-08-19T01:44:44.086Z,16.60
2018-08-19T01:47:15.232Z,16.70
2018-08-19T01:49:44.415Z,16.80
2018-08-19T01:52:14.257Z,16.80
2018-08-19T01:54:44.599Z,16.70
2018-08-19T01:57:13.790Z,16.70
2018-08-19T01:59:43.050Z,16.60
2018-08-19T02:02:12.332Z,16.60
2018-08-19T02:04:46.915Z,16.50
2018-08-19T02:07:16.222Z,16.50
2018-08-19T02:09:59.034Z,16.60
2018-08-19T02:12:33.597Z,16.60
2018-08-19T02:15:08.171Z,16.80
2018-08-19T02:17:48.675Z,16.80
2018-08-19T02:20:18.076Z,16.70
2018-08-19T02:22:52.095Z,16.70
2018-08-19T02:25:21.469Z,16.60
2018-08-19T02:27:51.799Z,16.60
2018-08-19T02:30:21.087Z,16.60
2018-08-19T02:32:52.923Z,16.50
2018-08-19T02:35:23.181Z,16.50
2018-08-19T02:37:53.286Z,16.60
2018-08-19T02:40:30.376Z,16.70
2018-08-19T02:42:59.771Z,16.70
2018-08-19T02:45:35.643Z,16.70
2018-08-19T02:48:05.362Z,16.70
2018-08-19T02:50:34.954Z,16.70
2018-08-19T02:53:05.138Z,16.60
2018-08-19T02:55:34.596Z,16.60
2018-08-19T02:58:09.172Z,16.70
2018-08-19T03:00:38.814Z,16.70
2018-08-19T03:03:08.128Z,16.60
2018-08-19T03:05:37.818Z,16.50
2018-08-19T03:08:07.358Z,16.50
2018-08-19T03:10:36.604Z,16.50
2018-08-19T03:13:05.869Z,16.60
2018-08-19T03:15:35.403Z,16.50
2018-08-19T03:18:04.631Z,16.40
2018-08-19T03:20:33.874Z,16.40
2018-08-19T03:23:03.100Z,16.50
2018-08-19T03:25:32.545Z,16.50
2018-08-19T03:28:01.771Z,16.50
2018-08-19T03:30:30.987Z,16.50
2018-08-19T03:33:00.551Z,16.50
2018-08-19T03:35:30.259Z,16.50
2018-08-19T03:38:04.796Z,16.60
2018-08-19T03:40:34.076Z,16.60
2018-08-19T03:43:03.274Z,16.70
2018-08-19T03:45:32.803Z,16.70
2018-08-19T03:48:02.251Z,16.60
2018-08-19T03:50:35.209Z,16.50
2018-08-19T03:53:04.563Z,16.50
2018-08-19T03:55:35.426Z,16.40
2018-08-19T03:58:06.474Z,16.40
2018-08-19T04:00:38.283Z,16.50
2018-08-19T04:03:25.308Z,16.40
2018-08-19T04:05:56.909Z,16.30
2018-08-19T04:08:31.848Z,16.30
2018-08-19T04:11:01.469Z,16.30
2018-08-19T04:13:33.268Z,16.20
2018-08-19T04:16:12.190Z,16.20
2018-08-19T04:18:45.331Z,16.20
2018-08-19T04:21:18.348Z,16.20
2018-08-19T04:23:50.482Z,16.10
2018-08-19T04:26:19.972Z,16.10
2018-08-19T04:28:49.392Z,16.20
2018-08-19T04:31:24.412Z,16.10
2018-08-19T04:33:56.164Z,16.10
2018-08-19T04:36:26.085Z,16.00
2018-08-19T04:38:55.939Z,16.00
2018-08-19T04:41:25.801Z,15.90
2018-08-19T04:43:55.159Z,15.90
2018-08-19T04:46:24.418Z,15.80
2018-08-19T04:48:53.758Z,15.80
2018-08-19T04:51:23.241Z,15.80
2018-08-19T04:53:52.716Z,15.80
2018-08-19T04:56:23.479Z,15.80
2018-08-19T04:58:52.717Z,15.80
2018-08-19T05:01:21.908Z,15.80
2018-08-19T05:03:51.175Z,15.70
2018-08-19T05:06:20.651Z,15.70
2018-08-19T05:08:49.925Z,15.70
2018-08-19T05:11:19.755Z,15.70
2018-08-19T05:13:48.984Z,15.70
2018-08-19T05:16:23.631Z,15.80
2018-08-19T05:18:58.213Z,15.80
2018-08-19T05:21:27.689Z,15.90
2018-08-19T05:23:57.119Z,16.00
2018-08-19T05:26:26.349Z,16.20
2018-08-19T05:29:06.951Z,16.30
2018-08-19T05:31:42.677Z,16.50
2018-08-19T05:34:18.108Z,16.70
2018-08-19T05:36:49.986Z,16.70
2018-08-19T05:39:19.255Z,16.80
2018-08-19T05:42:01.847Z,16.80
2018-08-19T05:44:33.299Z,16.90
2018-08-19T05:47:05.181Z,17.10
2018-08-19T05:49:37.371Z,17.30
2018-08-19T05:52:22.410Z,17.50
2018-08-19T05:54:59.981Z,17.60
2018-08-19T05:57:31.032Z,17.70
2018-08-19T06:00:04.572Z,17.80
2018-08-19T06:02:39.152Z,17.80
2018-08-19T06:05:09.336Z,18.00
2018-08-19T06:07:38.723Z,18.10
2018-08-19T06:10:08.049Z,18.10
2018-08-19T06:12:37.326Z,18.30
2018-08-19T06:15:06.729Z,18.30
2018-08-19T06:17:36.004Z,18.40
2018-08-19T06:20:05.395Z,18.40
2018-08-19T06:22:39.017Z,18.40
2018-08-19T06:25:08.933Z,18.40
2018-08-19T06:27:44.502Z,18.50
2018-08-19T06:30:14.562Z,18.50
2018-08-19T06:32:43.879Z,18.60
2018-08-19T06:35:13.568Z,18.70
2018-08-19T06:37:42.869Z,18.80
2018-08-19T06:40:14.646Z,18.90
2018-08-19T06:42:44.052Z,19.10
2018-08-19T06:45:13.836Z,19.20
2018-08-19T06:47:43.165Z,19.40
2018-08-19T06:50:21.004Z,19.60
2018-08-19T06:52:50.375Z,19.70
2018-08-19T06:55:20.752Z,20.00
2018-08-19T06:57:50.072Z,20.30
2018-08-19T07:00:24.621Z,20.60
2018-08-19T07:02:54.302Z,20.80
2018-08-19T07:05:23.630Z,21.10
2018-08-19T07:07:52.941Z,21.20
2018-08-19T07:10:29.543Z,21.50
2018-08-19T07:13:05.517Z,21.70
2018-08-19T07:15:35.786Z,21.90
2018-08-19T07:18:05.662Z,22.10
2018-08-19T07:20:35.468Z,22.10
2018-08-19T07:23:05.100Z,22.10
2018-08-19T07:25:34.456Z,22.20
2018-08-19T07:28:03.706Z,22.20
2018-08-19T07:30:32.921Z,22.20
2018-08-19T07:33:02.178Z,22.30
2018-08-19T07:35:31.600Z,22.40
2018-08-19T07:38:00.904Z,22.30
2018-08-19T07:40:30.124Z,22.50
2018-08-19T07:42:59.347Z,22.60
2018-08-19T07:45:28.814Z,22.80
2018-08-19T07:47:58.214Z,22.90
2018-08-19T07:50:27.410Z,23.00
2018-08-19T07:52:56.610Z,23.20
2018-08-19T07:55:26.203Z,23.20
2018-08-19T07:57:55.512Z,23.30
2018-08-19T08:00:29.930Z,23.50
2018-08-19T08:02:59.176Z,23.70
2018-08-19T08:05:32.765Z,23.80
2018-08-19T08:08:02.082Z,23.90
2018-08-19T08:10:31.318Z,24.10
2018-08-19T08:13:08.264Z,24.10
2018-08-19T08:15:42.948Z,24.10
2018-08-19T08:18:12.528Z,24.30
2018-08-19T08:20:41.755Z,24.40
2018-08-19T08:23:19.324Z,24.50
2018-08-19T08:25:48.936Z,24.60
2018-08-19T08:28:18.238Z,24.80
2018-08-19T08:30:47.446Z,24.90
2018-08-19T08:33:16.715Z,25.00
2018-08-19T08:35:51.101Z,24.70
2018-08-19T08:38:20.425Z,24.60
2018-08-19T08:40:49.738Z,24.60
2018-08-19T08:43:19.465Z,24.50
2018-08-19T08:45:49.722Z,24.40
2018-08-19T08:48:19.310Z,24.40
2018-08-19T08:50:49.283Z,24.40
2018-08-19T08:53:18.610Z,24.40
2018-08-19T08:55:48.159Z,24.40
2018-08-19T08:58:17.678Z,24.40
2018-08-19T09:00:47.816Z,24.50
2018-08-19T09:03:19.158Z,24.60
2018-08-19T09:05:50.150Z,24.60
2018-08-19T09:08:19.733Z,24.80
2018-08-19T09:10:50.759Z,25.00
2018-08-19T09:13:20.594Z,25.10
2018-08-19T09:15:50.542Z,25.20
2018-08-19T09:18:20.022Z,25.40
2018-08-19T09:20:49.269Z,25.60
2018-08-19T09:23:18.743Z,25.80
2018-08-19T09:25:48.843Z,25.90
2018-08-19T09:28:18.184Z,26.10
2018-08-19T09:30:47.498Z,26.20
2018-08-19T09:33:17.248Z,26.30
2018-08-19T09:35:47.797Z,26.40
2018-08-19T09:38:21.424Z,26.40
2018-08-19T09:40:52.005Z,26.40
2018-08-19T09:43:21.791Z,26.30
2018-08-19T09:45:51.262Z,26.30
2018-08-19T09:48:20.471Z,26.30
2018-08-19T09:50:51.861Z,26.10
2018-08-19T09:53:21.126Z,25.90
2018-08-19T09:55:55.823Z,25.90
2018-08-19T09:58:25.630Z,25.80
2018-08-19T10:01:00.151Z,25.70
2018-08-19T10:03:32.172Z,25.60
2018-08-19T10:06:01.413Z,25.60
2018-08-19T10:08:30.608Z,25.60
2018-08-19T10:11:00.215Z,25.50
2018-08-19T10:13:30.207Z,25.60
2018-08-19T10:15:59.843Z,25.80
2018-08-19T10:18:30.762Z,25.80
2018-08-19T10:21:04.234Z,25.90
2018-08-19T10:23:33.719Z,26.00
2018-08-19T10:26:04.157Z,26.10
2018-08-19T10:28:33.359Z,26.20
2018-08-19T10:31:02.842Z,26.30
2018-08-19T10:33:32.572Z,26.50
2018-08-19T10:36:01.782Z,26.60
2018-08-19T10:38:31.014Z,26.60
2018-08-19T10:41:05.608Z,26.60
2018-08-19T10:43:35.830Z,26.60
2018-08-19T10:46:05.128Z,26.60
2018-08-19T10:48:35.269Z,26.80
2018-08-19T10:51:04.483Z,27.20
2018-08-19T10:53:33.714Z,27.50
2018-08-19T10:56:03.829Z,27.70
2018-08-19T10:58:33.183Z,27.80
2018-08-19T11:01:03.487Z,28.00
2018-08-19T11:03:33.678Z,27.90
2018-08-19T11:06:03.826Z,27.70
2018-08-19T11:08:33.244Z,27.90
2018-08-19T11:11:02.488Z,28.20
2018-08-19T11:13:31.781Z,28.60
2018-08-19T11:16:00.960Z,28.90
2018-08-19T11:18:37.970Z,29.10
2018-08-19T11:21:23.931Z,28.90
2018-08-19T11:23:55.234Z,28.80
2018-08-19T11:26:24.542Z,29.10
2018-08-19T11:28:59.646Z,29.30
2018-08-19T11:31:36.020Z,29.50
2018-08-19T11:34:09.254Z,29.60
2018-08-19T11:36:43.355Z,29.60
2018-08-19T11:39:14.416Z,29.50
2018-08-19T11:41:43.704Z,29.30
2018-08-19T11:44:15.833Z,29.40
2018-08-19T11:46:45.251Z,29.40
2018-08-19T11:49:17.197Z,29.40
2018-08-19T11:51:54.242Z,29.50
2018-08-19T11:54:24.506Z,29.50
2018-08-19T11:57:03.143Z,29.50
2018-08-19T11:59:37.786Z,29.60
2018-08-19T12:02:10.617Z,29.60
2018-08-19T12:04:39.929Z,29.80
2018-08-19T12:07:09.223Z,29.90
2018-08-19T12:09:44.394Z,29.80
2018-08-19T12:12:13.725Z,29.40
2018-08-19T12:14:43.412Z,29.10
2018-08-19T12:17:13.131Z,29.00
2018-08-19T12:19:43.794Z,28.90
2018-08-19T12:22:13.144Z,28.80
2018-08-19T12:24:45.430Z,28.90
2018-08-19T12:27:19.227Z,28.90
2018-08-19T12:29:48.592Z,28.90
2018-08-19T12:32:24.613Z,28.80
2018-08-19T12:35:00.054Z,28.90
2018-08-19T12:37:30.813Z,29.00
2018-08-19T12:40:00.666Z,29.10
2018-08-19T12:42:30.823Z,29.10
2018-08-19T12:45:07.742Z,29.20
2018-08-19T12:47:37.446Z,29.30
2018-08-19T12:50:11.052Z,29.50
2018-08-19T12:52:40.209Z,29.70
2018-08-19T12:55:12.241Z,29.80
2018-08-19T12:57:42.405Z,30.00
2018-08-19T13:00:20.580Z,30.20
2018-08-19T13:02:51.354Z,30.40
2018-08-19T13:05:21.009Z,30.90
2018-08-19T13:07:50.474Z,31.20
2018-08-19T13:10:20.179Z,31.20
2018-08-19T13:12:57.625Z,31.10
2018-08-19T13:15:30.992Z,31.10
2018-08-19T13:18:00.254Z,30.90
2018-08-19T13:20:29.512Z,31.00
2018-08-19T13:23:04.825Z,31.30
2018-08-19T13:25:35.029Z,31.60
2018-08-19T13:28:04.320Z,31.70
2018-08-19T13:30:33.852Z,31.50
2018-08-19T13:33:03.070Z,31.10
2018-08-19T13:35:36.818Z,31.10
2018-08-19T13:38:06.292Z,31.00
2018-08-19T13:40:35.492Z,31.00
2018-08-19T13:43:04.799Z,31.20
2018-08-19T13:45:35.266Z,31.40
2018-08-19T13:48:04.534Z,32.30
2018-08-19T13:50:34.129Z,33.40
2018-08-19T13:53:03.328Z,34.60
2018-08-19T13:55:32.732Z,35.40
2018-08-19T13:58:02.055Z,36.60
2018-08-19T14:00:33.162Z,37.30
2018-08-19T14:03:04.053Z,38.40
2018-08-19T14:05:33.344Z,39.50
2018-08-19T14:08:02.840Z,40.30
2018-08-19T14:10:32.063Z,41.40
2018-08-19T14:13:04.100Z,41.50
2018-08-19T14:15:34.033Z,40.40
2018-08-19T14:18:03.415Z,39.60
2018-08-19T14:20:32.786Z,38.60
2018-08-19T14:23:02.482Z,38.00
2018-08-19T14:25:37.640Z,38.80
2018-08-19T14:28:08.098Z,39.90
2018-08-19T14:30:37.700Z,40.50
2018-08-19T14:33:07.434Z,41.20
2018-08-19T14:35:37.212Z,41.70
2018-08-19T14:38:06.845Z,42.00
2018-08-19T14:40:36.739Z,41.90
2018-08-19T14:43:06.014Z,42.00
2018-08-19T14:45:40.151Z,42.50
2018-08-19T14:48:10.158Z,42.80
2018-08-19T14:50:42.414Z,42.00
2018-08-19T14:53:13.274Z,41.50
2018-08-19T14:55:44.134Z,42.00
2018-08-19T14:58:14.099Z,42.50
2018-08-19T15:00:43.752Z,41.50
2018-08-19T15:03:13.310Z,39.70
2018-08-19T15:05:52.626Z,39.30
2018-08-19T15:08:30.750Z,38.90
2018-08-19T15:11:05.417Z,39.20
2018-08-19T15:13:35.129Z,39.70
2018-08-19T15:16:06.131Z,40.40
2018-08-19T15:18:37.385Z,40.60
2018-08-19T15:21:10.860Z,40.70
2018-08-19T15:23:43.669Z,41.60
2018-08-19T15:26:14.904Z,41.60
2018-08-19T15:28:47.454Z,40.60
2018-08-19T15:36:41.467Z,39.70
2018-08-19T15:39:14.914Z,40.60
2018-08-19T15:41:46.309Z,41.00
2018-08-19T15:44:28.122Z,42.50
2018-08-19T15:49:44.808Z,43.10
2018-08-19T15:58:37.970Z,37.50
2018-08-19T16:04:27.573Z,35.10
2018-08-19T16:07:07.107Z,33.50
2018-08-19T16:09:45.777Z,32.50
2018-08-19T16:12:20.369Z,32.00
2018-08-19T16:14:49.992Z,31.50
2018-08-19T16:20:16.756Z,31.10
2018-08-19T16:22:51.060Z,30.90
2018-08-19T16:28:10.422Z,30.40
2018-08-19T16:30:40.145Z,30.30
2018-08-19T16:33:09.644Z,30.20
2018-08-19T16:35:46.065Z,30.20
2018-08-19T16:38:15.618Z,30.20
2018-08-19T16:40:45.857Z,30.10
2018-08-19T16:43:15.760Z,30.10
2018-08-19T16:45:56.551Z,29.90
2018-08-19T16:48:26.295Z,29.80
2018-08-19T16:51:02.555Z,29.80
2018-08-19T16:53:33.009Z,29.80
2018-08-19T16:56:03.593Z,29.80
2018-08-19T16:58:34.967Z,29.70
2018-08-19T17:01:10.232Z,29.70
2018-08-19T17:03:41.094Z,29.60
2018-08-19T17:06:15.776Z,29.50
2018-08-19T17:08:45.377Z,29.40
2018-08-19T17:11:15.357Z,29.30
2018-08-19T17:13:45.191Z,29.20
2018-08-19T17:16:14.482Z,29.20
2018-08-19T17:18:43.748Z,29.10
2018-08-19T17:21:13.498Z,29.10
2018-08-19T17:23:43.274Z,29.00
2018-08-19T17:26:25.432Z,28.90
2018-08-19T17:28:54.802Z,28.70
2018-08-19T17:31:25.126Z,28.60
2018-08-19T17:33:59.677Z,28.50
2018-08-19T17:36:34.883Z,28.30
2018-08-19T17:39:15.948Z,28.20
2018-08-19T17:41:47.222Z,28.10
2018-08-19T17:44:17.540Z,28.10
2018-08-19T17:46:47.710Z,28.00
2018-08-19T17:49:33.367Z,27.90
2018-08-19T17:52:31.197Z,27.90
2018-08-19T17:55:01.810Z,27.80
2018-08-19T17:57:31.165Z,27.70
2018-08-19T18:00:00.530Z,27.70
2018-08-19T18:02:33.623Z,27.60
2018-08-19T18:05:03.276Z,27.50
2018-08-19T18:07:33.670Z,27.40
2018-08-19T18:10:06.177Z,27.30
2018-08-19T18:12:36.248Z,27.20
2018-08-19T18:15:06.776Z,27.10
2018-08-19T18:17:38.585Z,26.90
2018-08-19T18:20:30.692Z,26.80
2018-08-19T18:23:00.029Z,26.70
2018-08-19T18:25:30.141Z,26.50
2018-08-19T18:28:03.529Z,25.90
2018-08-19T18:30:32.971Z,25.40
2018-08-19T18:33:04.664Z,24.90
2018-08-19T18:35:34.192Z,24.50
2018-08-19T18:38:03.523Z,24.20
2018-08-19T18:40:34.235Z,24.10
2018-08-19T18:43:03.523Z,23.80
2018-08-19T18:45:32.926Z,23.60
2018-08-19T18:48:03.526Z,23.40
2018-08-19T18:50:32.819Z,23.20
2018-08-19T18:53:02.333Z,23.10
2018-08-19T18:55:37.157Z,23.00
2018-08-19T18:58:09.752Z,22.80
2018-08-19T19:00:46.612Z,22.70
2018-08-19T19:03:17.632Z,22.60
2018-08-19T19:05:49.889Z,22.40
2018-08-19T19:08:19.737Z,22.30
2018-08-19T19:10:58.079Z,22.30
2018-08-19T19:13:28.404Z,22.20
2018-08-19T19:15:57.675Z,22.10
2018-08-19T19:18:27.064Z,22.00
2018-08-19T19:21:01.408Z,21.90
2018-08-19T19:23:36.105Z,21.80
2018-08-19T19:26:06.533Z,21.60
2018-08-19T19:28:36.104Z,21.50
2018-08-19T19:31:10.847Z,21.50
2018-08-19T19:33:40.796Z,21.40
2018-08-19T19:36:15.865Z,21.30
2018-08-19T19:38:50.799Z,21.10
2018-08-19T19:41:28.101Z,21.00
2018-08-19T19:43:57.723Z,21.00
2018-08-19T19:46:26.996Z,20.90
2018-08-19T19:48:56.697Z,20.80
2018-08-19T19:51:26.046Z,20.80
2018-08-19T19:54:01.657Z,20.80
2018-08-19T19:56:31.151Z,20.60
2018-08-19T19:59:12.070Z,20.50
2018-08-19T20:01:41.469Z,20.50
2018-08-19T20:04:10.929Z,20.50
2018-08-19T20:06:40.859Z,20.50
2018-08-19T20:09:10.236Z,20.40
2018-08-19T20:11:39.979Z,20.30
2018-08-19T20:14:11.445Z,20.20
2018-08-19T20:16:41.379Z,20.00
2018-08-19T20:19:10.597Z,19.90
2018-08-19T20:21:40.242Z,19.90
2018-08-19T20:24:09.594Z,19.90
2018-08-19T20:26:38.908Z,19.80
2018-08-19T20:29:08.377Z,19.70
2018-08-19T20:31:37.803Z,19.60
2018-08-19T20:34:07.506Z,19.50
2018-08-19T20:36:36.994Z,19.50
2018-08-19T20:39:08.422Z,19.40
2018-08-19T20:41:37.756Z,19.30
2018-08-19T20:44:08.615Z,19.20
2018-08-19T20:46:40.398Z,19.20
2018-08-19T20:49:10.294Z,19.10
2018-08-19T20:51:39.599Z,19.10
2018-08-19T20:54:12.165Z,19.10
2018-08-19T20:56:41.826Z,19.10
2018-08-19T20:59:11.156Z,19.00
2018-08-19T21:01:40.476Z,18.90
2018-08-19T21:04:16.497Z,18.90
2018-08-19T21:06:51.667Z,18.90
2018-08-19T21:09:20.959Z,18.80
2018-08-19T21:11:57.858Z,18.70
2018-08-19T21:14:30.969Z,18.70
2018-08-19T21:17:03.391Z,18.60
2018-08-19T21:19:35.171Z,18.60
2018-08-19T21:22:11.780Z,18.60
2018-08-19T21:24:43.120Z,18.50
2018-08-19T21:27:14.709Z,18.40
2018-08-19T21:29:44.023Z,18.40
2018-08-19T21:32:14.139Z,18.40
2018-08-19T21:34:55.118Z,18.40
2018-08-19T21:37:34.061Z,18.30
2018-08-19T21:40:04.544Z,18.30
2018-08-19T21:42:51.030Z,18.20
2018-08-19T21:45:21.523Z,18.20
2018-08-19T21:47:51.078Z,18.20
2018-08-19T21:50:20.332Z,18.10
2018-08-19T21:52:59.649Z,18.10
2018-08-19T21:55:32.925Z,18.10
2018-08-19T21:58:03.958Z,18.10
2018-08-19T22:00:38.780Z,18.00
2018-08-19T22:03:15.441Z,18.00
2018-08-19T22:05:45.084Z,18.00
2018-08-19T22:08:14.539Z,17.90
2018-08-19T22:10:46.774Z,17.90
2018-08-19T22:13:16.112Z,17.90
2018-08-19T22:15:46.361Z,18.00
2018-08-19T22:18:19.184Z,18.00
2018-08-19T22:21:03.084Z,18.00
2018-08-19T22:23:37.529Z,18.00
2018-08-19T22:26:09.256Z,17.90
2018-08-19T22:28:40.273Z,17.90
2018-08-19T22:31:22.117Z,17.90
2018-08-19T22:33:54.411Z,17.80
2018-08-19T22:36:23.677Z,17.70
2018-08-19T22:38:53.748Z,17.70
2018-08-19T22:41:25.269Z,17.60
2018-08-19T22:43:55.409Z,17.60
2018-08-19T22:46:28.961Z,17.60
2018-08-19T22:48:58.688Z,17.50
2018-08-19T22:51:33.162Z,17.50
2018-08-19T22:54:03.511Z,17.40
2018-08-19T22:56:32.704Z,17.50
2018-08-19T22:59:01.991Z,17.40
2018-08-19T23:01:36.418Z,17.40
2018-08-19T23:04:06.505Z,17.40
2018-08-19T23:06:36.187Z,17.40
2018-08-19T23:09:06.896Z,17.40
2018-08-19T23:11:41.295Z,17.30
2018-08-19T23:14:21.609Z,17.30
2018-08-19T23:16:51.222Z,17.20
2018-08-19T23:19:21.816Z,17.20
2018-08-19T23:21:51.279Z,17.10
2018-08-19T23:24:24.482Z,17.20
2018-08-19T23:26:59.725Z,17.20
2018-08-19T23:29:29.818Z,17.10
2018-08-19T23:32:00.260Z,17.10
2018-08-19T23:34:37.558Z,17.00
2018-08-19T23:37:07.756Z,17.00
2018-08-19T23:39:37.118Z,16.90
2018-08-19T23:42:06.377Z,16.80
2018-08-19T23:44:37.813Z,16.80
2018-08-19T23:47:07.670Z,16.70
2018-08-19T23:49:36.851Z,16.70
2018-08-19T23:52:06.141Z,16.70
2018-08-19T23:54:37.588Z,16.70
2018-08-19T23:57:06.865Z,16.70
2018-08-19T23:59:37.099Z,16.60
